createdAt,value
2022-09-28T00:01:27.666Z,96804.00
2022-09-28T00:04:00.022Z,96792.09
2022-09-28T00:06:28.960Z,96795.00
2022-09-28T00:08:56.114Z,96795.53
2022-09-28T00:11:28.380Z,96798.03
2022-09-28T00:14:00.210Z,96794.69
2022-09-28T00:16:29.596Z,96789.50
2022-09-28T00:18:56.620Z,96795.13
2022-09-28T00:21:25.961Z,96799.13
2022-09-28T00:24:13.600Z,96809.75
2022-09-28T00:26:52.153Z,96803.75
2022-09-28T00:29:20.335Z,96796.84
2022-09-28T00:31:47.558Z,96798.50
2022-09-28T00:34:14.613Z,96804.34
2022-09-28T00:36:44.554Z,96792.09
2022-09-28T00:39:12.459Z,96800.63
2022-09-28T00:41:39.371Z,96800.66
2022-09-28T00:44:24.528Z,96800.84
2022-09-28T00:46:56.814Z,96810.53
2022-09-28T00:49:32.891Z,96815.09
2022-09-28T00:52:02.793Z,96810.22
2022-09-28T00:54:29.664Z,96811.66
2022-09-28T00:56:56.627Z,96817.53
2022-09-28T00:59:24.970Z,96818.00
2022-09-28T01:01:51.887Z,96823.44
2022-09-28T01:04:18.783Z,96819.22
2022-09-28T01:06:46.007Z,96815.50
2022-09-28T01:09:14.414Z,96811.88
2022-09-28T01:11:42.557Z,96818.88
2022-09-28T01:14:12.504Z,96806.34
2022-09-28T01:17:18.370Z,96806.78
2022-09-28T01:20:09.807Z,96809.75
2022-09-28T01:23:09.616Z,96815.75
2022-09-28T01:25:59.831Z,96814.94
2022-09-28T01:28:30.394Z,96805.16
2022-09-28T01:31:04.622Z,96799.47
2022-09-28T01:33:38.002Z,96794.31
2022-09-28T01:36:07.997Z,96796.34
2022-09-28T01:38:45.255Z,96803.16
2022-09-28T01:41:11.912Z,96807.50
2022-09-28T01:43:41.266Z,96821.13
2022-09-28T01:46:42.338Z,96819.03
2022-09-28T01:49:13.356Z,96817.44
2022-09-28T01:51:40.909Z,96827.31
2022-09-28T01:54:18.440Z,96823.78
2022-09-28T01:56:49.667Z,96825.38
2022-09-28T01:59:20.669Z,96817.97
2022-09-28T02:01:57.167Z,96828.22
2022-09-28T02:04:31.357Z,96832.00
2022-09-28T02:07:03.145Z,96833.13
2022-09-28T02:09:44.521Z,96833.84
2022-09-28T02:12:17.015Z,96818.59
2022-09-28T02:14:45.939Z,96815.50
2022-09-28T02:17:12.897Z,96819.97
2022-09-28T02:19:41.446Z,96814.87
2022-09-28T02:22:26.613Z,96803.06
2022-09-28T02:24:56.910Z,96819.69
2022-09-28T02:27:29.900Z,96816.81
2022-09-28T02:29:56.921Z,96826.72
2022-09-28T02:32:24.439Z,96823.44
2022-09-28T02:34:51.334Z,96819.12
2022-09-28T02:37:18.191Z,96821.34
2022-09-28T02:39:45.138Z,96823.97
2022-09-28T02:42:25.895Z,96821.78
2022-09-28T02:45:11.464Z,96818.69
2022-09-28T02:48:06.940Z,96820.19
2022-09-28T02:51:12.820Z,96818.91
2022-09-28T02:54:07.079Z,96817.28
2022-09-28T02:56:52.275Z,96818.75
2022-09-28T03:00:15.645Z,96816.13
2022-09-28T03:03:14.463Z,96816.81
2022-09-28T03:05:53.258Z,96813.81
2022-09-28T03:08:25.305Z,96817.84
2022-09-28T03:11:17.849Z,96827.94
2022-09-28T03:13:44.832Z,96827.63
2022-09-28T03:16:17.254Z,96833.00
2022-09-28T03:18:44.637Z,96828.78
2022-09-28T03:21:12.451Z,96837.81
2022-09-28T03:23:39.989Z,96833.97
2022-09-28T03:26:11.825Z,96829.44
2022-09-28T03:28:39.075Z,96836.00
2022-09-28T03:31:06.503Z,96820.66
2022-09-28T03:33:33.401Z,96827.53
2022-09-28T03:36:00.386Z,96826.56
2022-09-28T03:38:27.320Z,96820.38
2022-09-28T03:40:58.716Z,96816.28
2022-09-28T03:43:26.636Z,96802.72
2022-09-28T03:45:55.297Z,96805.16
2022-09-28T03:48:31.365Z,96797.97
2022-09-28T03:51:01.439Z,96796.75
2022-09-28T03:53:29.783Z,96788.00
2022-09-28T03:55:57.081Z,96793.47
2022-09-28T03:58:24.036Z,96784.03
2022-09-28T04:00:51.700Z,96785.53
2022-09-28T04:03:18.637Z,96785.25
2022-09-28T04:05:50.190Z,96785.78
2022-09-28T04:08:17.180Z,96791.44
2022-09-28T04:10:44.022Z,96797.56
2022-09-28T04:13:11.016Z,96794.72
2022-09-28T04:15:38.706Z,96796.50
2022-09-28T04:18:10.860Z,96790.88
2022-09-28T04:20:37.842Z,96789.38
2022-09-28T04:23:04.735Z,96789.25
2022-09-28T04:25:31.605Z,96786.63
2022-09-28T04:28:17.390Z,96782.09
2022-09-28T04:30:44.524Z,96797.31
2022-09-28T04:33:11.416Z,96789.91
2022-09-28T04:35:38.290Z,96799.81
2022-09-28T04:38:05.644Z,96799.78
2022-09-28T04:40:35.470Z,96798.25
2022-09-28T04:43:02.434Z,96793.34
2022-09-28T04:45:31.428Z,96790.97
2022-09-28T04:47:58.300Z,96800.03
2022-09-28T04:50:25.135Z,96795.28
2022-09-28T04:52:51.969Z,96795.81
2022-09-28T04:55:24.040Z,96801.00
2022-09-28T04:57:50.854Z,96795.94
2022-09-28T05:00:17.698Z,96801.72
2022-09-28T05:02:44.945Z,96804.72
2022-09-28T05:05:12.896Z,96803.75
2022-09-28T05:07:41.664Z,96797.94
2022-09-28T05:10:08.758Z,96807.00
2022-09-28T05:12:35.582Z,96808.22
2022-09-28T05:15:03.862Z,96808.72
2022-09-28T05:17:31.904Z,96816.13
2022-09-28T05:19:59.293Z,96813.16
2022-09-28T05:22:26.127Z,96806.28
2022-09-28T05:24:55.116Z,96813.19
2022-09-28T05:27:22.017Z,96812.09
2022-09-28T05:29:48.855Z,96805.97
2022-09-28T05:32:17.003Z,96798.84
2022-09-28T05:34:43.851Z,96798.41
2022-09-28T05:37:10.683Z,96797.75
2022-09-28T05:39:37.544Z,96802.25
2022-09-28T05:42:04.431Z,96802.91
2022-09-28T05:44:31.271Z,96808.28
2022-09-28T05:46:58.111Z,96798.41
2022-09-28T05:49:25.125Z,96801.47
2022-09-28T05:51:51.949Z,96791.13
2022-09-28T05:54:20.929Z,96790.75
2022-09-28T05:56:47.902Z,96788.66
2022-09-28T05:59:14.721Z,96782.50
2022-09-28T06:01:41.613Z,96771.53
2022-09-28T06:04:09.972Z,96782.78
2022-09-28T06:06:38.545Z,96779.00
2022-09-28T06:09:05.443Z,96774.03
2022-09-28T06:11:32.657Z,96780.41
2022-09-28T06:13:59.517Z,96777.84
2022-09-28T06:16:26.464Z,96788.81
2022-09-28T06:18:53.332Z,96796.19
2022-09-28T06:21:20.178Z,96793.06
2022-09-28T06:23:49.382Z,96793.22
2022-09-28T06:26:17.138Z,96791.16
2022-09-28T06:28:43.991Z,96796.91
2022-09-28T06:31:10.997Z,96795.78
2022-09-28T06:33:38.759Z,96798.13
2022-09-28T06:36:05.813Z,96803.34
2022-09-28T06:38:32.672Z,96807.00
2022-09-28T06:41:24.200Z,96806.09
2022-09-28T06:43:52.447Z,96802.00
2022-09-28T06:46:19.438Z,96801.09
2022-09-28T06:48:46.699Z,96794.50
2022-09-28T06:51:13.841Z,96808.84
2022-09-28T06:53:40.796Z,96802.53
2022-09-28T06:56:11.446Z,96803.22
2022-09-28T06:58:38.366Z,96811.12
2022-09-28T07:01:05.932Z,96809.72
2022-09-28T07:03:32.861Z,96811.97
2022-09-28T07:06:00.084Z,96809.09
2022-09-28T07:08:28.822Z,96793.06
2022-09-28T07:10:56.489Z,96802.38
2022-09-28T07:13:47.044Z,96809.56
2022-09-28T07:16:12.979Z,96808.84
2022-09-28T07:18:40.662Z,96793.34
2022-09-28T07:21:09.806Z,96785.72
2022-09-28T07:23:51.130Z,96780.56
2022-09-28T07:26:23.572Z,96779.09
2022-09-28T07:28:51.435Z,96776.75
2022-09-28T07:31:18.482Z,96786.91
2022-09-28T07:33:47.295Z,96779.00
2022-09-28T07:36:18.030Z,96786.91
2022-09-28T07:38:44.888Z,96780.34
2022-09-28T07:41:11.768Z,96791.00
2022-09-28T07:43:42.149Z,96796.88
2022-09-28T07:46:12.521Z,96804.09
2022-09-28T07:48:41.369Z,96791.06
2022-09-28T07:51:09.020Z,96790.88
2022-09-28T07:53:36.322Z,96797.06
2022-09-28T07:56:08.909Z,96793.16
2022-09-28T07:58:37.088Z,96792.37
2022-09-28T08:01:10.613Z,96800.41
2022-09-28T08:03:38.651Z,96786.97
2022-09-28T08:06:07.708Z,96795.41
2022-09-28T08:08:35.234Z,96789.19
2022-09-28T08:11:02.399Z,96793.38
2022-09-28T08:13:29.826Z,96779.97
2022-09-28T08:16:01.238Z,96781.53
2022-09-28T08:18:28.157Z,96783.28
2022-09-28T08:21:13.502Z,96788.19
2022-09-28T08:23:40.413Z,96779.84
2022-09-28T08:26:09.320Z,96776.16
2022-09-28T08:28:39.460Z,96783.44
2022-09-28T08:31:07.551Z,96776.56
2022-09-28T08:33:34.872Z,96770.41
2022-09-28T08:36:04.016Z,96770.00
2022-09-28T08:38:31.445Z,96763.75
2022-09-28T08:41:12.124Z,96758.50
2022-09-28T08:44:26.577Z,96766.72
2022-09-28T08:47:00.319Z,96763.78
2022-09-28T08:49:29.882Z,96752.38
2022-09-28T08:52:06.788Z,96765.69
2022-09-28T08:54:37.062Z,96763.97
2022-09-28T08:57:11.722Z,96780.59
2022-09-28T08:59:41.659Z,96770.78
2022-09-28T09:02:15.676Z,96774.72
2022-09-28T09:04:45.729Z,96766.53
2022-09-28T09:07:24.529Z,96769.84
2022-09-28T09:10:13.869Z,96768.34
2022-09-28T09:12:43.591Z,96765.84
2022-09-28T09:15:43.479Z,96754.72
2022-09-28T09:18:38.681Z,96756.59
2022-09-28T09:21:15.859Z,96762.53
2022-09-28T09:23:56.354Z,96759.94
2022-09-28T09:26:39.335Z,96755.00
2022-09-28T09:29:18.432Z,96770.63
2022-09-28T09:32:12.907Z,96749.88
2022-09-28T09:35:15.454Z,96757.19
2022-09-28T09:38:07.314Z,96747.50
2022-09-28T09:40:59.618Z,96755.56
2022-09-28T09:43:49.549Z,96756.03
2022-09-28T09:46:19.535Z,96756.88
2022-09-28T09:49:00.111Z,96751.56
2022-09-28T09:51:30.109Z,96739.59
2022-09-28T09:54:03.600Z,96758.84
2022-09-28T09:56:38.724Z,96749.53
2022-09-28T09:59:12.315Z,96765.09
2022-09-28T10:01:40.413Z,96762.75
2022-09-28T10:04:19.687Z,96754.50
2022-09-28T10:06:49.968Z,96743.25
2022-09-28T10:09:54.284Z,96747.69
2022-09-28T10:12:22.532Z,96756.25
2022-09-28T10:14:50.189Z,96753.66
2022-09-28T10:17:20.194Z,96759.75
2022-09-28T10:19:47.069Z,96747.91
2022-09-28T10:22:18.694Z,96741.31
2022-09-28T10:24:56.243Z,96732.22
2022-09-28T10:27:40.706Z,96743.88
2022-09-28T10:30:10.691Z,96735.94
2022-09-28T10:32:44.611Z,96738.31
2022-09-28T10:35:19.503Z,96741.56
2022-09-28T10:38:04.790Z,96730.72
2022-09-28T10:40:49.753Z,96730.28
2022-09-28T10:43:26.529Z,96720.22
2022-09-28T10:46:08.520Z,96722.69
2022-09-28T10:48:55.034Z,96723.19
2022-09-28T10:51:42.293Z,96719.47
2022-09-28T10:54:16.481Z,96715.41
2022-09-28T10:56:43.894Z,96690.47
2022-09-28T10:59:25.361Z,96686.81
2022-09-28T11:02:05.009Z,96686.50
2022-09-28T11:04:42.156Z,96685.81
2022-09-28T11:07:21.144Z,96686.28
2022-09-28T11:09:49.028Z,96692.84
2022-09-28T11:12:21.621Z,96675.78
2022-09-28T11:14:53.001Z,96680.53
2022-09-28T11:17:29.380Z,96669.97
2022-09-28T11:19:58.321Z,96679.78
2022-09-28T11:22:31.427Z,96673.19
2022-09-28T11:25:16.352Z,96669.66
2022-09-28T11:27:56.386Z,96667.69
2022-09-28T11:30:33.760Z,96665.72
2022-09-28T11:33:11.331Z,96670.84
2022-09-28T11:36:00.807Z,96674.50
2022-09-28T11:38:53.876Z,96668.84
2022-09-28T11:41:45.629Z,96659.00
2022-09-28T11:44:40.012Z,96668.41
2022-09-28T11:47:29.475Z,96662.91
2022-09-28T11:50:06.648Z,96660.75
2022-09-28T11:52:33.270Z,96659.47
2022-09-28T11:55:05.805Z,96644.94
2022-09-28T11:57:38.275Z,96644.31
2022-09-28T12:00:10.170Z,96634.84
2022-09-28T12:02:44.958Z,96629.91
2022-09-28T12:05:21.140Z,96634.09
2022-09-28T12:07:50.513Z,96633.41
2022-09-28T12:10:23.899Z,96633.91
2022-09-28T12:13:04.270Z,96631.97
2022-09-28T12:16:06.889Z,96625.06
2022-09-28T12:19:08.999Z,96638.38
2022-09-28T12:21:53.500Z,96625.59
2022-09-28T12:24:24.007Z,96627.69
2022-09-28T12:27:00.828Z,96632.28
2022-09-28T12:29:33.606Z,96631.16
2022-09-28T12:32:13.351Z,96629.34
2022-09-28T12:34:43.476Z,96629.63
2022-09-28T12:37:28.221Z,96633.59
2022-09-28T12:40:05.299Z,96627.06
2022-09-28T12:42:39.341Z,96632.44
2022-09-28T12:45:22.202Z,96623.28
2022-09-28T12:48:08.425Z,96623.59
2022-09-28T12:50:40.281Z,96616.75
2022-09-28T12:53:39.908Z,96607.13
2022-09-28T12:56:28.253Z,96604.25
2022-09-28T12:59:09.791Z,96610.25
2022-09-28T13:02:08.446Z,96606.31
2022-09-28T13:05:13.145Z,96595.44
2022-09-28T13:08:05.400Z,96610.00
2022-09-28T13:10:40.973Z,96609.34
2022-09-28T13:13:39.390Z,96602.44
2022-09-28T13:16:13.940Z,96604.91
2022-09-28T13:18:45.740Z,96595.25
2022-09-28T13:21:35.249Z,96609.63
2022-09-28T13:24:21.032Z,96615.38
2022-09-28T13:26:52.700Z,96602.22
2022-09-28T13:29:21.320Z,96595.81
2022-09-28T13:31:52.178Z,96604.00
2022-09-28T13:34:22.627Z,96589.22
2022-09-28T13:37:16.990Z,96591.06
2022-09-28T13:39:48.882Z,96574.25
2022-09-28T13:42:34.252Z,96576.69
2022-09-28T13:45:22.966Z,96574.22
2022-09-28T13:48:35.914Z,96579.37
2022-09-28T13:51:11.396Z,96590.53
2022-09-28T13:53:48.379Z,96584.13
2022-09-28T13:56:54.508Z,96587.06
2022-09-28T13:59:30.032Z,96585.03
2022-09-28T14:02:06.858Z,96583.56
2022-09-28T14:04:52.407Z,96574.97
2022-09-28T14:10:49.577Z,96578.81
2022-09-28T14:13:42.637Z,96580.28
2022-09-28T14:16:18.358Z,96573.63
2022-09-28T14:18:55.880Z,96576.25
2022-09-28T14:21:52.162Z,96566.03
2022-09-28T14:24:26.820Z,96574.53
2022-09-28T14:27:06.599Z,96569.97
2022-09-28T14:29:36.382Z,96571.75
2022-09-28T14:32:23.191Z,96564.75
2022-09-28T14:34:58.781Z,96570.22
2022-09-28T14:37:48.131Z,96569.28
2022-09-28T14:40:49.912Z,96579.47
2022-09-28T14:43:45.365Z,96573.91
2022-09-28T14:46:13.187Z,96571.78
2022-09-28T14:48:51.265Z,96570.84
2022-09-28T14:51:40.920Z,96574.44
2022-09-28T14:54:13.516Z,96571.13
2022-09-28T14:56:52.220Z,96562.59
2022-09-28T14:59:30.551Z,96563.09
2022-09-28T15:02:06.543Z,96561.13
2022-09-28T15:04:35.897Z,96554.78
2022-09-28T15:07:02.878Z,96555.87
2022-09-28T15:09:35.222Z,96564.75
2022-09-28T15:12:12.361Z,96558.75
2022-09-28T15:14:44.885Z,96571.84
2022-09-28T15:17:13.061Z,96566.78
2022-09-28T15:20:03.164Z,96566.94
2022-09-28T15:22:30.494Z,96573.75
2022-09-28T15:25:02.518Z,96575.22
2022-09-28T15:27:37.229Z,96569.31
2022-09-28T15:30:25.555Z,96560.88
2022-09-28T15:32:56.867Z,96570.19
2022-09-28T15:35:26.517Z,96566.44
2022-09-28T15:37:55.055Z,96561.00
2022-09-28T15:40:30.803Z,96559.56
2022-09-28T15:42:59.418Z,96560.47
2022-09-28T15:45:36.818Z,96565.72
2022-09-28T15:48:31.230Z,96552.31
2022-09-28T15:51:10.486Z,96560.47
2022-09-28T15:54:04.381Z,96556.22
2022-09-28T15:56:32.071Z,96558.84
2022-09-28T15:59:20.723Z,96558.63
2022-09-28T16:01:48.199Z,96555.28
2022-09-28T16:04:48.368Z,96573.06
2022-09-28T16:07:18.491Z,96562.87
2022-09-28T16:09:56.284Z,96563.75
2022-09-28T16:12:24.705Z,96567.34
2022-09-28T16:14:52.551Z,96573.63
2022-09-28T16:17:33.924Z,96569.19
2022-09-28T16:20:21.167Z,96578.66
2022-09-28T16:22:48.355Z,96581.63
2022-09-28T16:25:20.561Z,96573.81
2022-09-28T16:27:47.490Z,96582.66
2022-09-28T16:30:24.467Z,96579.25
2022-09-28T16:32:58.558Z,96581.34
2022-09-28T16:35:31.259Z,96589.88
2022-09-28T16:38:17.660Z,96588.22
2022-09-28T16:40:55.254Z,96593.28
2022-09-28T16:43:27.103Z,96598.06
2022-09-28T16:45:58.231Z,96586.28
2022-09-28T16:48:28.183Z,96583.38
2022-09-28T16:50:55.899Z,96583.06
2022-09-28T16:53:41.806Z,96582.81
2022-09-28T16:56:08.825Z,96589.44
2022-09-28T16:58:36.255Z,96587.66
2022-09-28T17:01:03.378Z,96596.88
2022-09-28T17:03:30.386Z,96587.63
2022-09-28T17:05:57.355Z,96580.19
2022-09-28T17:08:25.164Z,96583.62
2022-09-28T17:11:15.914Z,96582.50
2022-09-28T17:13:42.350Z,96588.19
2022-09-28T17:16:18.085Z,96578.94
2022-09-28T17:18:46.110Z,96585.59
2022-09-28T17:21:18.683Z,96591.34
2022-09-28T17:23:47.116Z,96582.75
2022-09-28T17:26:27.388Z,96585.44
2022-09-28T17:28:54.254Z,96589.72
2022-09-28T17:31:21.138Z,96593.59
2022-09-28T17:33:47.966Z,96593.19
2022-09-28T17:36:17.069Z,96578.81
2022-09-28T17:38:44.677Z,96589.25
2022-09-28T17:41:16.799Z,96601.06
2022-09-28T17:43:46.581Z,96584.66
2022-09-28T17:46:32.598Z,96580.00
2022-09-28T17:49:01.584Z,96587.53
2022-09-28T17:51:31.157Z,96582.19
2022-09-28T17:53:58.859Z,96586.13
2022-09-28T17:56:29.716Z,96576.94
2022-09-28T17:59:05.853Z,96585.22
2022-09-28T18:01:36.734Z,96583.41
2022-09-28T18:04:05.134Z,96591.78
2022-09-28T18:06:33.830Z,96588.34
2022-09-28T18:09:03.065Z,96590.69
2022-09-28T18:11:30.882Z,96590.81
2022-09-28T18:13:57.757Z,96592.03
2022-09-28T18:16:25.126Z,96596.75
2022-09-28T18:18:52.071Z,96593.28
2022-09-28T18:21:18.932Z,96592.00
2022-09-28T18:23:45.817Z,96594.53
2022-09-28T18:26:14.161Z,96584.06
2022-09-28T18:28:41.242Z,96586.75
2022-09-28T18:31:09.915Z,96590.22
2022-09-28T18:33:53.117Z,96580.38
2022-09-28T18:36:19.953Z,96587.41
2022-09-28T18:38:46.825Z,96596.47
2022-09-28T18:41:15.880Z,96587.53
2022-09-28T18:43:51.627Z,96585.78
2022-09-28T18:46:18.721Z,96597.22
2022-09-28T18:48:47.359Z,96604.88
2022-09-28T18:51:14.235Z,96600.97
2022-09-28T18:53:41.123Z,96607.09
2022-09-28T18:56:10.237Z,96609.31
2022-09-28T18:58:38.699Z,96605.72
2022-09-28T19:01:29.008Z,96609.13
2022-09-28T19:03:59.637Z,96611.56
2022-09-28T19:06:26.471Z,96601.37
2022-09-28T19:08:55.892Z,96595.44
2022-09-28T19:11:23.211Z,96607.22
2022-09-28T19:13:50.553Z,96600.75
2022-09-28T19:16:21.060Z,96601.13
2022-09-28T19:18:48.799Z,96599.16
2022-09-28T19:21:15.995Z,96596.88
2022-09-28T19:23:48.909Z,96591.19
2022-09-28T19:26:18.887Z,96603.25
2022-09-28T19:28:45.705Z,96596.56
2022-09-28T19:31:12.957Z,96588.66
2022-09-28T19:33:40.512Z,96589.84
2022-09-28T19:36:16.373Z,96587.31
2022-09-28T19:38:43.261Z,96597.59
2022-09-28T19:41:40.781Z,96593.87
2022-09-28T19:44:27.493Z,96585.56
2022-09-28T19:46:56.682Z,96584.88
2022-09-28T19:49:25.067Z,96592.41
2022-09-28T19:52:13.902Z,96587.81
2022-09-28T19:54:48.518Z,96593.25
2022-09-28T19:57:16.165Z,96582.28
2022-09-28T19:59:43.461Z,96586.03
2022-09-28T20:02:10.736Z,96592.69
2022-09-28T20:04:37.740Z,96590.25
2022-09-28T20:07:05.232Z,96588.41
2022-09-28T20:09:32.827Z,96591.66
2022-09-28T20:11:59.721Z,96589.00
2022-09-28T20:14:30.716Z,96583.47
2022-09-28T20:17:01.015Z,96578.72
2022-09-28T20:19:27.852Z,96581.63
2022-09-28T20:21:55.031Z,96592.13
2022-09-28T20:24:21.948Z,96578.47
2022-09-28T20:26:49.723Z,96589.31
2022-09-28T20:29:16.662Z,96586.47
2022-09-28T20:31:44.188Z,96590.12
2022-09-28T20:34:12.243Z,96590.88
2022-09-28T20:36:43.292Z,96591.34
2022-09-28T20:39:10.744Z,96576.31
2022-09-28T20:41:37.659Z,96578.44
2022-09-28T20:44:06.568Z,96580.69
2022-09-28T20:46:35.062Z,96568.72
2022-09-28T20:49:02.435Z,96566.53
2022-09-28T20:51:29.280Z,96566.41
2022-09-28T20:53:57.983Z,96566.66
2022-09-28T20:56:27.306Z,96571.81
2022-09-28T20:58:55.144Z,96571.19
2022-09-28T21:01:24.315Z,96573.34
2022-09-28T21:03:58.632Z,96576.44
2022-09-28T21:06:30.995Z,96575.56
2022-09-28T21:08:58.172Z,96580.22
2022-09-28T21:11:26.950Z,96581.63
2022-09-28T21:13:55.827Z,96576.75
2022-09-28T21:16:22.656Z,96574.41
2022-09-28T21:18:49.544Z,96562.84
2022-09-28T21:21:18.222Z,96578.66
2022-09-28T21:23:45.300Z,96570.25
2022-09-28T21:26:26.169Z,96571.59
2022-09-28T21:28:58.025Z,96573.28
2022-09-28T21:31:29.366Z,96577.53
2022-09-28T21:33:57.381Z,96563.50
2022-09-28T21:36:24.894Z,96558.06
2022-09-28T21:38:51.801Z,96564.41
2022-09-28T21:41:18.675Z,96560.09
2022-09-28T21:43:46.072Z,96562.28
2022-09-28T21:46:13.102Z,96565.56
2022-09-28T21:48:40.033Z,96564.88
2022-09-28T21:51:09.336Z,96566.69
2022-09-28T21:53:37.755Z,96562.84
2022-09-28T21:56:07.509Z,96566.06
2022-09-28T21:58:35.553Z,96567.72
2022-09-28T22:01:07.506Z,96568.50
2022-09-28T22:03:36.343Z,96572.50
2022-09-28T22:06:04.584Z,96575.94
2022-09-28T22:08:31.686Z,96575.31
2022-09-28T22:11:00.891Z,96575.06
2022-09-28T22:13:29.399Z,96573.09
2022-09-28T22:15:59.918Z,96569.66
2022-09-28T22:18:28.429Z,96567.41
2022-09-28T22:21:09.091Z,96570.66
2022-09-28T22:23:36.926Z,96568.91
2022-09-28T22:26:08.864Z,96566.28
2022-09-28T22:28:35.923Z,96570.09
2022-09-28T22:31:02.834Z,96576.94
2022-09-28T22:33:29.729Z,96570.00
2022-09-28T22:35:56.606Z,96572.03
2022-09-28T22:38:24.642Z,96575.25
2022-09-28T22:40:54.377Z,96575.41
2022-09-28T22:43:23.578Z,96573.00
2022-09-28T22:45:51.287Z,96577.28
2022-09-28T22:48:18.744Z,96586.22
2022-09-28T22:50:50.001Z,96580.31
2022-09-28T22:53:16.857Z,96578.06
2022-09-28T22:55:43.909Z,96584.41
2022-09-28T22:58:10.968Z,96585.41
2022-09-28T23:00:38.039Z,96590.94
2022-09-28T23:03:05.172Z,96591.06
2022-09-28T23:05:32.053Z,96591.31
2022-09-28T23:07:59.140Z,96585.59
2022-09-28T23:10:26.007Z,96602.16
2022-09-28T23:12:55.866Z,96614.25
2022-09-28T23:15:23.099Z,96612.62
2022-09-28T23:17:53.502Z,96612.09
2022-09-28T23:20:23.792Z,96611.81
2022-09-28T23:22:50.942Z,96618.28
2022-09-28T23:25:18.945Z,96618.03
2022-09-28T23:27:50.358Z,96612.31
2022-09-28T23:30:19.069Z,96609.19
2022-09-28T23:32:46.036Z,96613.31
2022-09-28T23:35:14.359Z,96618.03
2022-09-28T23:37:41.194Z,96606.91
2022-09-28T23:40:08.258Z,96613.12
2022-09-28T23:42:35.745Z,96601.63
2022-09-28T23:45:02.609Z,96599.38
2022-09-28T23:47:29.432Z,96599.53
2022-09-28T23:49:56.282Z,96593.91
2022-09-28T23:52:23.101Z,96600.50
2022-09-28T23:54:49.935Z,96597.53
2022-09-28T23:57:16.792Z,96596.66
2022-09-28T23:59:43.638Z,96589.41
